sensor_id;sensor_type;location;lat;lon;timestamp;P1;durP1;ratioP1;P2;durP2;ratioP2
61525;SDS011;47394;41.366;-8.738;2023-04-15T00:00:23;33.67;;;14.10;;
61525;SDS011;47394;41.366;-8.738;2023-04-15T00:02:24;31.05;;;13.27;;
61525;SDS011;47394;41.366;-8.738;2023-04-15T00:04:25;49.28;;;12.88;;
61525;SDS011;47394;41.366;-8.738;2023-04-15T00:06:26;190.98;;;18.05;;
61525;SDS011;47394;41.366;-8.738;2023-04-15T00:08:26;41.97;;;16.52;;
61525;SDS011;47394;41.366;-8.738;2023-04-15T00:10:27;94.55;;;16.35;;
61525;SDS011;47394;41.366;-8.738;2023-04-15T00:12:27;163.18;;;15.60;;
61525;SDS011;47394;41.366;-8.738;2023-04-15T00:14:28;130.27;;;13.88;;
61525;SDS011;47394;41.366;-8.738;2023-04-15T00:16:29;148.75;;;12.50;;
61525;SDS011;47394;41.366;-8.738;2023-04-15T00:18:30;72.93;;;10.85;;
61525;SDS011;47394;41.366;-8.738;2023-04-15T00:20:31;116.60;;;11.90;;
61525;SDS011;47394;41.366;-8.738;2023-04-15T00:22:32;131.38;;;12.35;;
61525;SDS011;47394;41.366;-8.738;2023-04-15T00:24:32;134.90;;;12.55;;
61525;SDS011;47394;41.366;-8.738;2023-04-15T00:26:33;97.78;;;11.85;;
61525;SDS011;47394;41.366;-8.738;2023-04-15T00:28:35;119.72;;;12.13;;
61525;SDS011;47394;41.366;-8.738;2023-04-15T00:30:36;81.03;;;11.80;;
61525;SDS011;47394;41.366;-8.738;2023-04-15T00:32:38;74.97;;;11.38;;
61525;SDS011;47394;41.366;-8.738;2023-04-15T00:34:39;82.53;;;11.18;;
61525;SDS011;47394;41.366;-8.738;2023-04-15T00:36:41;84.53;;;11.65;;
61525;SDS011;47394;41.366;-8.738;2023-04-15T00:38:41;114.45;;;11.27;;
61525;SDS011;47394;41.366;-8.738;2023-04-15T00:40:42;77.15;;;10.52;;
61525;SDS011;47394;41.366;-8.738;2023-04-15T00:42:42;119.75;;;11.15;;
61525;SDS011;47394;41.366;-8.738;2023-04-15T00:44:44;103.05;;;11.68;;
61525;SDS011;47394;41.366;-8.738;2023-04-15T00:46:44;84.32;;;12.98;;
61525;SDS011;47394;41.366;-8.738;2023-04-15T00:48:46;87.60;;;12.07;;
61525;SDS011;47394;41.366;-8.738;2023-04-15T00:50:46;100.78;;;13.15;;
61525;SDS011;47394;41.366;-8.738;2023-04-15T00:52:47;84.80;;;12.77;;
61525;SDS011;47394;41.366;-8.738;2023-04-15T00:54:48;154.02;;;14.32;;
61525;SDS011;47394;41.366;-8.738;2023-04-15T00:56:50;119.63;;;14.20;;
61525;SDS011;47394;41.366;-8.738;2023-04-15T00:58:51;110.25;;;13.75;;
61525;SDS011;47394;41.366;-8.738;2023-04-15T01:00:51;86.95;;;13.05;;
61525;SDS011;47394;41.366;-8.738;2023-04-15T01:02:53;134.60;;;14.45;;
61525;SDS011;47394;41.366;-8.738;2023-04-15T01:04:54;121.07;;;14.00;;
61525;SDS011;47394;41.366;-8.738;2023-04-15T01:06:56;88.63;;;13.93;;
61525;SDS011;47394;41.366;-8.738;2023-04-15T01:08:57;78.32;;;13.05;;
61525;SDS011;47394;41.366;-8.738;2023-04-15T01:10:59;101.55;;;12.52;;
61525;SDS011;47394;41.366;-8.738;2023-04-15T01:13:02;142.45;;;13.77;;
61525;SDS011;47394;41.366;-8.738;2023-04-15T01:15:03;81.40;;;12.90;;
61525;SDS011;47394;41.366;-8.738;2023-04-15T01:17:04;89.95;;;12.73;;
61525;SDS011;47394;41.366;-8.738;2023-04-15T01:19:05;69.53;;;12.93;;
61525;SDS011;47394;41.366;-8.738;2023-04-15T01:21:08;120.90;;;13.10;;
61525;SDS011;47394;41.366;-8.738;2023-04-15T01:23:08;46.03;;;12.00;;
61525;SDS011;47394;41.366;-8.738;2023-04-15T01:25:10;126.43;;;13.30;;
61525;SDS011;47394;41.366;-8.738;2023-04-15T01:27:11;86.22;;;12.65;;
61525;SDS011;47394;41.366;-8.738;2023-04-15T01:29:12;48.58;;;11.82;;
61525;SDS011;47394;41.366;-8.738;2023-04-15T01:31:13;55.88;;;12.05;;
61525;SDS011;47394;41.366;-8.738;2023-04-15T01:33:13;61.15;;;11.82;;
61525;SDS011;47394;41.366;-8.738;2023-04-15T01:35:15;33.70;;;11.50;;
61525;SDS011;47394;41.366;-8.738;2023-04-15T01:37:15;43.88;;;12.35;;
61525;SDS011;47394;41.366;-8.738;2023-04-15T01:39:17;42.42;;;12.73;;
61525;SDS011;47394;41.366;-8.738;2023-04-15T01:41:20;36.33;;;12.20;;
61525;SDS011;47394;41.366;-8.738;2023-04-15T01:43:25;27.95;;;11.43;;
61525;SDS011;47394;41.366;-8.738;2023-04-15T01:45:26;29.95;;;11.93;;
61525;SDS011;47394;41.366;-8.738;2023-04-15T01:47:26;18.25;;;12.73;;
61525;SDS011;47394;41.366;-8.738;2023-04-15T01:49:27;32.70;;;13.75;;
61525;SDS011;47394;41.366;-8.738;2023-04-15T01:51:27;32.33;;;13.60;;
61525;SDS011;47394;41.366;-8.738;2023-04-15T01:53:28;21.08;;;13.45;;
61525;SDS011;47394;41.366;-8.738;2023-04-15T01:55:28;58.75;;;14.18;;
61525;SDS011;47394;41.366;-8.738;2023-04-15T01:57:30;27.55;;;13.55;;
61525;SDS011;47394;41.366;-8.738;2023-04-15T01:59:30;44.40;;;13.95;;
61525;SDS011;47394;41.366;-8.738;2023-04-15T02:01:32;26.92;;;13.30;;
61525;SDS011;47394;41.366;-8.738;2023-04-15T02:03:33;63.92;;;13.80;;
61525;SDS011;47394;41.366;-8.738;2023-04-15T02:05:33;29.10;;;13.50;;
61525;SDS011;47394;41.366;-8.738;2023-04-15T02:07:34;59.00;;;14.10;;
61525;SDS011;47394;41.366;-8.738;2023-04-15T02:09:35;68.28;;;13.82;;
61525;SDS011;47394;41.366;-8.738;2023-04-15T02:11:36;86.20;;;15.25;;
61525;SDS011;47394;41.366;-8.738;2023-04-15T02:13:38;162.52;;;17.88;;
61525;SDS011;47394;41.366;-8.738;2023-04-15T02:15:38;42.80;;;14.15;;
61525;SDS011;47394;41.366;-8.738;2023-04-15T02:17:39;170.75;;;16.30;;
61525;SDS011;47394;41.366;-8.738;2023-04-15T02:19:41;198.10;;;17.27;;
61525;SDS011;47394;41.366;-8.738;2023-04-15T02:21:41;117.60;;;15.15;;
61525;SDS011;47394;41.366;-8.738;2023-04-15T02:23:42;218.75;;;17.52;;
61525;SDS011;47394;41.366;-8.738;2023-04-15T02:25:46;227.75;;;17.05;;
61525;SDS011;47394;41.366;-8.738;2023-04-15T02:27:47;203.30;;;16.83;;
61525;SDS011;47394;41.366;-8.738;2023-04-15T02:31:50;228.73;;;17.58;;
61525;SDS011;47394;41.366;-8.738;2023-04-15T02:33:51;108.75;;;14.60;;
61525;SDS011;47394;41.366;-8.738;2023-04-15T02:35:51;190.27;;;16.35;;
61525;SDS011;47394;41.366;-8.738;2023-04-15T02:37:52;60.17;;;13.75;;
61525;SDS011;47394;41.366;-8.738;2023-04-15T02:39:53;159.65;;;15.73;;
61525;SDS011;47394;41.366;-8.738;2023-04-15T02:41:53;133.52;;;15.25;;
61525;SDS011;47394;41.366;-8.738;2023-04-15T02:43:55;103.57;;;15.23;;
61525;SDS011;47394;41.366;-8.738;2023-04-15T02:45:56;176.60;;;16.02;;
61525;SDS011;47394;41.366;-8.738;2023-04-15T02:47:56;115.78;;;15.15;;
61525;SDS011;47394;41.366;-8.738;2023-04-15T02:49:57;118.85;;;16.10;;
61525;SDS011;47394;41.366;-8.738;2023-04-15T02:51:59;262.10;;;20.27;;
61525;SDS011;47394;41.366;-8.738;2023-04-15T02:54:00;62.50;;;15.30;;
61525;SDS011;47394;41.366;-8.738;2023-04-15T02:56:01;256.45;;;19.42;;
61525;SDS011;47394;41.366;-8.738;2023-04-15T02:58:01;165.25;;;16.05;;
61525;SDS011;47394;41.366;-8.738;2023-04-15T03:00:02;288.40;;;20.65;;
61525;SDS011;47394;41.366;-8.738;2023-04-15T03:02:05;277.33;;;20.65;;
61525;SDS011;47394;41.366;-8.738;2023-04-15T03:04:07;270.08;;;20.83;;
61525;SDS011;47394;41.366;-8.738;2023-04-15T03:06:08;217.43;;;19.05;;
61525;SDS011;47394;41.366;-8.738;2023-04-15T03:08:09;229.25;;;19.73;;
61525;SDS011;47394;41.366;-8.738;2023-04-15T03:10:09;153.60;;;18.75;;
61525;SDS011;47394;41.366;-8.738;2023-04-15T03:12:10;227.80;;;20.63;;
61525;SDS011;47394;41.366;-8.738;2023-04-15T03:14:10;151.38;;;19.50;;
61525;SDS011;47394;41.366;-8.738;2023-04-15T03:16:15;196.32;;;19.85;;
61525;SDS011;47394;41.366;-8.738;2023-04-15T03:18:16;148.52;;;20.98;;
61525;SDS011;47394;41.366;-8.738;2023-04-15T03:20:17;199.35;;;20.27;;
61525;SDS011;47394;41.366;-8.738;2023-04-15T03:22:18;176.00;;;18.73;;
61525;SDS011;47394;41.366;-8.738;2023-04-15T03:24:18;69.13;;;18.02;;
61525;SDS011;47394;41.366;-8.738;2023-04-15T03:26:23;112.05;;;18.13;;
61525;SDS011;47394;41.366;-8.738;2023-04-15T03:28:23;99.03;;;18.85;;
61525;SDS011;47394;41.366;-8.738;2023-04-15T03:30:25;64.38;;;17.67;;
61525;SDS011;47394;41.366;-8.738;2023-04-15T03:32:25;129.48;;;18.90;;
61525;SDS011;47394;41.366;-8.738;2023-04-15T03:34:27;41.60;;;16.80;;
61525;SDS011;47394;41.366;-8.738;2023-04-15T03:36:28;88.65;;;17.23;;
61525;SDS011;47394;41.366;-8.738;2023-04-15T03:38:30;195.65;;;20.13;;
61525;SDS011;47394;41.366;-8.738;2023-04-15T03:40:30;226.52;;;20.88;;
61525;SDS011;47394;41.366;-8.738;2023-04-15T03:42:31;194.02;;;19.50;;
61525;SDS011;47394;41.366;-8.738;2023-04-15T03:44:31;75.75;;;18.45;;
61525;SDS011;47394;41.366;-8.738;2023-04-15T03:46:32;233.35;;;20.38;;
61525;SDS011;47394;41.366;-8.738;2023-04-15T03:48:32;94.00;;;19.35;;
61525;SDS011;47394;41.366;-8.738;2023-04-15T03:50:33;134.75;;;19.17;;
61525;SDS011;47394;41.366;-8.738;2023-04-15T03:52:33;102.40;;;18.98;;
61525;SDS011;47394;41.366;-8.738;2023-04-15T03:54:34;167.63;;;19.90;;
61525;SDS011;47394;41.366;-8.738;2023-04-15T03:56:35;141.25;;;19.20;;
61525;SDS011;47394;41.366;-8.738;2023-04-15T03:58:35;73.18;;;16.80;;
61525;SDS011;47394;41.366;-8.738;2023-04-15T04:00:36;64.53;;;17.30;;
61525;SDS011;47394;41.366;-8.738;2023-04-15T04:02:36;78.13;;;18.40;;
61525;SDS011;47394;41.366;-8.738;2023-04-15T04:04:37;60.58;;;18.42;;
61525;SDS011;47394;41.366;-8.738;2023-04-15T04:06:37;112.32;;;18.85;;
61525;SDS011;47394;41.366;-8.738;2023-04-15T04:08:38;87.03;;;19.52;;
61525;SDS011;47394;41.366;-8.738;2023-04-15T04:10:39;72.93;;;18.10;;
61525;SDS011;47394;41.366;-8.738;2023-04-15T04:12:39;74.55;;;18.27;;
61525;SDS011;47394;41.366;-8.738;2023-04-15T04:14:40;74.70;;;19.10;;
61525;SDS011;47394;41.366;-8.738;2023-04-15T04:16:40;52.72;;;18.58;;
61525;SDS011;47394;41.366;-8.738;2023-04-15T04:18:41;40.42;;;18.38;;
61525;SDS011;47394;41.366;-8.738;2023-04-15T04:20:41;68.47;;;17.67;;
61525;SDS011;47394;41.366;-8.738;2023-04-15T04:22:42;31.73;;;17.02;;
61525;SDS011;47394;41.366;-8.738;2023-04-15T04:24:42;41.53;;;18.70;;
61525;SDS011;47394;41.366;-8.738;2023-04-15T04:26:43;56.28;;;18.60;;
61525;SDS011;47394;41.366;-8.738;2023-04-15T04:28:43;38.05;;;18.70;;
61525;SDS011;47394;41.366;-8.738;2023-04-15T04:30:44;24.48;;;17.85;;
61525;SDS011;47394;41.366;-8.738;2023-04-15T04:32:44;45.85;;;19.02;;
61525;SDS011;47394;41.366;-8.738;2023-04-15T04:34:45;25.45;;;16.92;;
61525;SDS011;47394;41.366;-8.738;2023-04-15T04:36:46;43.85;;;17.95;;
61525;SDS011;47394;41.366;-8.738;2023-04-15T04:38:46;36.65;;;19.50;;
61525;SDS011;47394;41.366;-8.738;2023-04-15T04:40:47;63.72;;;18.65;;
61525;SDS011;47394;41.366;-8.738;2023-04-15T04:42:47;43.47;;;18.83;;
61525;SDS011;47394;41.366;-8.738;2023-04-15T04:44:48;61.53;;;20.60;;
61525;SDS011;47394;41.366;-8.738;2023-04-15T04:46:48;55.97;;;20.23;;
61525;SDS011;47394;41.366;-8.738;2023-04-15T04:48:49;62.47;;;22.70;;
61525;SDS011;47394;41.366;-8.738;2023-04-15T04:50:49;45.05;;;21.02;;
61525;SDS011;47394;41.366;-8.738;2023-04-15T04:52:50;109.28;;;23.83;;
61525;SDS011;47394;41.366;-8.738;2023-04-15T04:54:51;57.08;;;22.92;;
61525;SDS011;47394;41.366;-8.738;2023-04-15T04:56:51;38.80;;;22.73;;
61525;SDS011;47394;41.366;-8.738;2023-04-15T04:58:52;42.78;;;21.88;;
61525;SDS011;47394;41.366;-8.738;2023-04-15T05:00:52;73.20;;;22.90;;
61525;SDS011;47394;41.366;-8.738;2023-04-15T05:02:53;65.57;;;23.77;;
61525;SDS011;47394;41.366;-8.738;2023-04-15T05:04:53;52.45;;;23.20;;
61525;SDS011;47394;41.366;-8.738;2023-04-15T05:06:54;55.33;;;23.77;;
61525;SDS011;47394;41.366;-8.738;2023-04-15T05:08:55;132.32;;;24.58;;
61525;SDS011;47394;41.366;-8.738;2023-04-15T05:10:55;119.75;;;24.05;;
61525;SDS011;47394;41.366;-8.738;2023-04-15T05:12:56;91.75;;;24.05;;
61525;SDS011;47394;41.366;-8.738;2023-04-15T05:14:56;195.18;;;25.23;;
61525;SDS011;47394;41.366;-8.738;2023-04-15T05:16:59;288.93;;;26.27;;
61525;SDS011;47394;41.366;-8.738;2023-04-15T05:18:59;70.30;;;22.55;;
61525;SDS011;47394;41.366;-8.738;2023-04-15T05:21:00;66.00;;;21.42;;
61525;SDS011;47394;41.366;-8.738;2023-04-15T05:23:01;271.90;;;25.00;;
61525;SDS011;47394;41.366;-8.738;2023-04-15T05:25:02;88.10;;;21.55;;
61525;SDS011;47394;41.366;-8.738;2023-04-15T05:27:03;208.38;;;22.85;;
61525;SDS011;47394;41.366;-8.738;2023-04-15T05:29:04;440.70;;;30.50;;
61525;SDS011;47394;41.366;-8.738;2023-04-15T05:31:04;156.13;;;22.27;;
61525;SDS011;47394;41.366;-8.738;2023-04-15T05:33:06;106.30;;;21.85;;
61525;SDS011;47394;41.366;-8.738;2023-04-15T05:35:07;100.90;;;21.75;;
61525;SDS011;47394;41.366;-8.738;2023-04-15T05:37:07;69.43;;;21.15;;
61525;SDS011;47394;41.366;-8.738;2023-04-15T05:39:08;290.65;;;25.77;;
61525;SDS011;47394;41.366;-8.738;2023-04-15T05:41:08;88.97;;;21.67;;
61525;SDS011;47394;41.366;-8.738;2023-04-15T05:43:09;99.70;;;21.60;;
61525;SDS011;47394;41.366;-8.738;2023-04-15T05:45:10;215.68;;;23.50;;
61525;SDS011;47394;41.366;-8.738;2023-04-15T05:47:10;76.40;;;20.10;;
61525;SDS011;47394;41.366;-8.738;2023-04-15T05:49:11;190.32;;;23.17;;
61525;SDS011;47394;41.366;-8.738;2023-04-15T05:51:11;211.40;;;23.63;;
61525;SDS011;47394;41.366;-8.738;2023-04-15T05:53:12;163.25;;;22.05;;
61525;SDS011;47394;41.366;-8.738;2023-04-15T05:55:12;183.93;;;23.27;;
61525;SDS011;47394;41.366;-8.738;2023-04-15T05:57:13;234.80;;;25.70;;
61525;SDS011;47394;41.366;-8.738;2023-04-15T05:59:14;93.90;;;21.90;;
61525;SDS011;47394;41.366;-8.738;2023-04-15T06:01:14;124.25;;;23.10;;
61525;SDS011;47394;41.366;-8.738;2023-04-15T06:03:16;84.28;;;23.23;;
61525;SDS011;47394;41.366;-8.738;2023-04-15T06:05:17;154.73;;;24.67;;
61525;SDS011;47394;41.366;-8.738;2023-04-15T06:07:18;75.88;;;23.48;;
61525;SDS011;47394;41.366;-8.738;2023-04-15T06:09:18;97.78;;;24.90;;
61525;SDS011;47394;41.366;-8.738;2023-04-15T06:11:19;141.07;;;26.15;;
61525;SDS011;47394;41.366;-8.738;2023-04-15T06:13:21;84.68;;;25.38;;
61525;SDS011;47394;41.366;-8.738;2023-04-15T06:15:21;225.00;;;30.15;;
61525;SDS011;47394;41.366;-8.738;2023-04-15T06:17:22;131.20;;;29.08;;
61525;SDS011;47394;41.366;-8.738;2023-04-15T06:19:22;73.63;;;26.00;;
61525;SDS011;47394;41.366;-8.738;2023-04-15T06:21:23;75.38;;;29.05;;
61525;SDS011;47394;41.366;-8.738;2023-04-15T06:23:24;106.15;;;30.67;;
61525;SDS011;47394;41.366;-8.738;2023-04-15T06:25:25;140.88;;;33.10;;
61525;SDS011;47394;41.366;-8.738;2023-04-15T06:27:25;222.55;;;37.03;;
61525;SDS011;47394;41.366;-8.738;2023-04-15T06:29:26;133.18;;;34.88;;
61525;SDS011;47394;41.366;-8.738;2023-04-15T06:31:26;185.48;;;36.05;;
61525;SDS011;47394;41.366;-8.738;2023-04-15T06:33:27;136.68;;;36.22;;
61525;SDS011;47394;41.366;-8.738;2023-04-15T06:35:27;85.85;;;33.42;;
61525;SDS011;47394;41.366;-8.738;2023-04-15T06:37:28;93.30;;;33.65;;
61525;SDS011;47394;41.366;-8.738;2023-04-15T06:39:29;152.05;;;37.15;;
61525;SDS011;47394;41.366;-8.738;2023-04-15T06:41:29;108.40;;;34.97;;
61525;SDS011;47394;41.366;-8.738;2023-04-15T06:43:30;104.82;;;36.22;;
61525;SDS011;47394;41.366;-8.738;2023-04-15T06:45:31;126.15;;;37.05;;
61525;SDS011;47394;41.366;-8.738;2023-04-15T06:47:31;103.38;;;35.28;;
61525;SDS011;47394;41.366;-8.738;2023-04-15T06:49:32;108.97;;;36.92;;
61525;SDS011;47394;41.366;-8.738;2023-04-15T06:51:33;117.32;;;38.42;;
61525;SDS011;47394;41.366;-8.738;2023-04-15T06:53:34;149.90;;;37.15;;
61525;SDS011;47394;41.366;-8.738;2023-04-15T06:55:36;71.85;;;32.33;;
61525;SDS011;47394;41.366;-8.738;2023-04-15T06:57:36;82.20;;;32.05;;
61525;SDS011;47394;41.366;-8.738;2023-04-15T06:59:37;91.13;;;32.97;;
61525;SDS011;47394;41.366;-8.738;2023-04-15T07:01:37;86.55;;;31.70;;
61525;SDS011;47394;41.366;-8.738;2023-04-15T07:03:38;91.03;;;30.25;;
61525;SDS011;47394;41.366;-8.738;2023-04-15T07:05:38;110.40;;;32.03;;
61525;SDS011;47394;41.366;-8.738;2023-04-15T07:07:39;114.97;;;32.58;;
61525;SDS011;47394;41.366;-8.738;2023-04-15T07:09:40;132.20;;;34.38;;
61525;SDS011;47394;41.366;-8.738;2023-04-15T07:11:40;157.18;;;33.17;;
61525;SDS011;47394;41.366;-8.738;2023-04-15T07:13:41;83.07;;;29.30;;
61525;SDS011;47394;41.366;-8.738;2023-04-15T07:15:41;78.80;;;32.30;;
61525;SDS011;47394;41.366;-8.738;2023-04-15T07:17:42;135.88;;;31.25;;
61525;SDS011;47394;41.366;-8.738;2023-04-15T07:19:42;90.70;;;33.40;;
61525;SDS011;47394;41.366;-8.738;2023-04-15T07:21:43;66.20;;;32.80;;
61525;SDS011;47394;41.366;-8.738;2023-04-15T07:23:43;67.10;;;31.38;;
61525;SDS011;47394;41.366;-8.738;2023-04-15T07:25:44;71.55;;;32.35;;
61525;SDS011;47394;41.366;-8.738;2023-04-15T07:27:44;62.05;;;32.15;;
61525;SDS011;47394;41.366;-8.738;2023-04-15T07:29:45;64.93;;;32.05;;
61525;SDS011;47394;41.366;-8.738;2023-04-15T07:31:46;51.10;;;29.63;;
61525;SDS011;47394;41.366;-8.738;2023-04-15T07:33:46;55.75;;;29.77;;
61525;SDS011;47394;41.366;-8.738;2023-04-15T07:35:47;50.08;;;30.08;;
61525;SDS011;47394;41.366;-8.738;2023-04-15T07:37:48;48.85;;;27.88;;
61525;SDS011;47394;41.366;-8.738;2023-04-15T07:39:48;52.67;;;29.23;;
61525;SDS011;47394;41.366;-8.738;2023-04-15T07:41:49;43.83;;;26.65;;
61525;SDS011;47394;41.366;-8.738;2023-04-15T07:43:49;41.67;;;27.08;;
61525;SDS011;47394;41.366;-8.738;2023-04-15T07:45:50;44.90;;;26.65;;
61525;SDS011;47394;41.366;-8.738;2023-04-15T07:47:50;41.55;;;25.77;;
61525;SDS011;47394;41.366;-8.738;2023-04-15T07:49:51;37.67;;;24.55;;
61525;SDS011;47394;41.366;-8.738;2023-04-15T07:51:51;34.10;;;23.38;;
61525;SDS011;47394;41.366;-8.738;2023-04-15T07:53:52;37.35;;;22.63;;
61525;SDS011;47394;41.366;-8.738;2023-04-15T07:55:54;39.08;;;22.77;;
61525;SDS011;47394;41.366;-8.738;2023-04-15T07:57:55;32.83;;;21.75;;
61525;SDS011;47394;41.366;-8.738;2023-04-15T07:59:56;33.40;;;22.60;;
61525;SDS011;47394;41.366;-8.738;2023-04-15T08:01:56;33.58;;;22.40;;
61525;SDS011;47394;41.366;-8.738;2023-04-15T08:03:59;31.40;;;21.38;;
61525;SDS011;47394;41.366;-8.738;2023-04-15T08:08:00;32.42;;;22.20;;
61525;SDS011;47394;41.366;-8.738;2023-04-15T08:10:01;30.20;;;21.77;;
61525;SDS011;47394;41.366;-8.738;2023-04-15T08:12:01;34.00;;;21.92;;
61525;SDS011;47394;41.366;-8.738;2023-04-15T08:14:02;31.52;;;21.25;;
61525;SDS011;47394;41.366;-8.738;2023-04-15T08:18:12;33.47;;;20.92;;
61525;SDS011;47394;41.366;-8.738;2023-04-15T08:20:13;27.48;;;18.90;;
61525;SDS011;47394;41.366;-8.738;2023-04-15T08:22:14;28.60;;;18.80;;
61525;SDS011;47394;41.366;-8.738;2023-04-15T08:24:14;24.95;;;17.58;;
61525;SDS011;47394;41.366;-8.738;2023-04-15T08:26:15;32.53;;;17.70;;
61525;SDS011;47394;41.366;-8.738;2023-04-15T08:28:16;27.17;;;15.93;;
61525;SDS011;47394;41.366;-8.738;2023-04-15T08:30:16;36.75;;;17.33;;
61525;SDS011;47394;41.366;-8.738;2023-04-15T08:32:17;32.53;;;16.50;;
61525;SDS011;47394;41.366;-8.738;2023-04-15T08:34:18;24.85;;;16.10;;
61525;SDS011;47394;41.366;-8.738;2023-04-15T08:36:19;24.98;;;14.20;;
61525;SDS011;47394;41.366;-8.738;2023-04-15T08:38:19;23.48;;;14.23;;
61525;SDS011;47394;41.366;-8.738;2023-04-15T08:40:20;21.25;;;13.32;;
61525;SDS011;47394;41.366;-8.738;2023-04-15T08:42:22;21.60;;;14.15;;
61525;SDS011;47394;41.366;-8.738;2023-04-15T08:44:32;22.08;;;13.57;;
61525;SDS011;47394;41.366;-8.738;2023-04-15T08:46:33;21.90;;;13.55;;
61525;SDS011;47394;41.366;-8.738;2023-04-15T08:48:36;23.83;;;14.50;;
61525;SDS011;47394;41.366;-8.738;2023-04-15T08:50:37;20.85;;;12.68;;
61525;SDS011;47394;41.366;-8.738;2023-04-15T08:52:38;20.77;;;13.38;;
61525;SDS011;47394;41.366;-8.738;2023-04-15T08:54:39;22.23;;;13.52;;
61525;SDS011;47394;41.366;-8.738;2023-04-15T08:56:40;22.30;;;14.52;;
61525;SDS011;47394;41.366;-8.738;2023-04-15T08:58:44;26.83;;;15.35;;
61525;SDS011;47394;41.366;-8.738;2023-04-15T09:00:45;23.85;;;16.25;;
61525;SDS011;47394;41.366;-8.738;2023-04-15T09:02:47;30.30;;;17.27;;
61525;SDS011;47394;41.366;-8.738;2023-04-15T09:04:48;28.23;;;16.05;;
61525;SDS011;47394;41.366;-8.738;2023-04-15T09:06:48;26.85;;;16.45;;
61525;SDS011;47394;41.366;-8.738;2023-04-15T09:08:49;27.20;;;16.38;;
61525;SDS011;47394;41.366;-8.738;2023-04-15T09:10:51;33.95;;;17.98;;
61525;SDS011;47394;41.366;-8.738;2023-04-15T09:12:53;25.92;;;15.13;;
61525;SDS011;47394;41.366;-8.738;2023-04-15T09:14:53;29.08;;;15.07;;
61525;SDS011;47394;41.366;-8.738;2023-04-15T09:16:57;25.10;;;14.52;;
61525;SDS011;47394;41.366;-8.738;2023-04-15T09:18:58;27.33;;;14.13;;
61525;SDS011;47394;41.366;-8.738;2023-04-15T09:21:08;26.05;;;13.50;;
61525;SDS011;47394;41.366;-8.738;2023-04-15T09:23:11;21.70;;;13.63;;
61525;SDS011;47394;41.366;-8.738;2023-04-15T09:27:21;19.38;;;13.27;;
61525;SDS011;47394;41.366;-8.738;2023-04-15T09:29:25;22.35;;;13.15;;
61525;SDS011;47394;41.366;-8.738;2023-04-15T09:31:28;23.20;;;12.57;;
61525;SDS011;47394;41.366;-8.738;2023-04-15T09:33:29;21.67;;;11.80;;
61525;SDS011;47394;41.366;-8.738;2023-04-15T09:35:29;24.88;;;12.38;;
61525;SDS011;47394;41.366;-8.738;2023-04-15T09:37:38;46.92;;;14.57;;
61525;SDS011;47394;41.366;-8.738;2023-04-15T09:41:56;86.72;;;21.08;;
61525;SDS011;47394;41.366;-8.738;2023-04-15T09:44:03;81.85;;;20.65;;
61525;SDS011;47394;41.366;-8.738;2023-04-15T09:46:04;88.47;;;21.17;;
61525;SDS011;47394;41.366;-8.738;2023-04-15T09:48:23;72.90;;;19.35;;
61525;SDS011;47394;41.366;-8.738;2023-04-15T09:50:26;71.13;;;20.83;;
61525;SDS011;47394;41.366;-8.738;2023-04-15T09:52:29;81.22;;;21.83;;
61525;SDS011;47394;41.366;-8.738;2023-04-15T09:54:33;84.93;;;21.65;;
61525;SDS011;47394;41.366;-8.738;2023-04-15T09:56:34;101.68;;;22.00;;
61525;SDS011;47394;41.366;-8.738;2023-04-15T09:58:36;82.50;;;20.65;;
61525;SDS011;47394;41.366;-8.738;2023-04-15T10:00:38;77.53;;;19.95;;
61525;SDS011;47394;41.366;-8.738;2023-04-15T10:02:38;85.85;;;21.30;;
61525;SDS011;47394;41.366;-8.738;2023-04-15T10:04:40;65.55;;;19.40;;
61525;SDS011;47394;41.366;-8.738;2023-04-15T10:06:41;60.65;;;16.77;;
61525;SDS011;47394;41.366;-8.738;2023-04-15T10:08:42;76.93;;;15.32;;
61525;SDS011;47394;41.366;-8.738;2023-04-15T10:10:43;46.85;;;13.73;;
61525;SDS011;47394;41.366;-8.738;2023-04-15T10:12:44;57.53;;;15.55;;
61525;SDS011;47394;41.366;-8.738;2023-04-15T10:14:51;54.90;;;13.63;;
61525;SDS011;47394;41.366;-8.738;2023-04-15T10:16:52;60.65;;;14.13;;
61525;SDS011;47394;41.366;-8.738;2023-04-15T10:18:55;57.85;;;15.48;;
61525;SDS011;47394;41.366;-8.738;2023-04-15T10:20:56;50.38;;;13.45;;
61525;SDS011;47394;41.366;-8.738;2023-04-15T10:22:58;52.10;;;12.57;;
61525;SDS011;47394;41.366;-8.738;2023-04-15T10:24:58;56.78;;;12.95;;
61525;SDS011;47394;41.366;-8.738;2023-04-15T10:27:03;45.60;;;12.15;;
61525;SDS011;47394;41.366;-8.738;2023-04-15T10:29:05;40.65;;;11.75;;
61525;SDS011;47394;41.366;-8.738;2023-04-15T10:31:05;36.65;;;11.70;;
61525;SDS011;47394;41.366;-8.738;2023-04-15T10:33:06;59.08;;;14.15;;
61525;SDS011;47394;41.366;-8.738;2023-04-15T10:35:08;46.20;;;13.35;;
61525;SDS011;47394;41.366;-8.738;2023-04-15T10:37:09;33.22;;;11.75;;
61525;SDS011;47394;41.366;-8.738;2023-04-15T10:41:32;42.80;;;12.13;;
61525;SDS011;47394;41.366;-8.738;2023-04-15T10:43:34;39.85;;;12.23;;
61525;SDS011;47394;41.366;-8.738;2023-04-15T10:45:36;36.78;;;11.27;;
61525;SDS011;47394;41.366;-8.738;2023-04-15T10:47:37;39.88;;;11.40;;
61525;SDS011;47394;41.366;-8.738;2023-04-15T10:49:44;33.55;;;11.68;;
61525;SDS011;47394;41.366;-8.738;2023-04-15T10:51:46;32.83;;;11.55;;
61525;SDS011;47394;41.366;-8.738;2023-04-15T10:53:50;49.10;;;12.48;;
61525;SDS011;47394;41.366;-8.738;2023-04-15T10:55:56;34.33;;;11.55;;
61525;SDS011;47394;41.366;-8.738;2023-04-15T10:57:59;40.35;;;12.10;;
61525;SDS011;47394;41.366;-8.738;2023-04-15T11:00:13;39.78;;;12.02;;
61525;SDS011;47394;41.366;-8.738;2023-04-15T11:02:14;31.38;;;11.23;;
61525;SDS011;47394;41.366;-8.738;2023-04-15T11:04:17;35.38;;;12.27;;
61525;SDS011;47394;41.366;-8.738;2023-04-15T11:06:44;34.10;;;11.48;;
61525;SDS011;47394;41.366;-8.738;2023-04-15T11:08:52;32.67;;;12.73;;
61525;SDS011;47394;41.366;-8.738;2023-04-15T11:10:53;46.08;;;11.50;;
61525;SDS011;47394;41.366;-8.738;2023-04-15T11:12:57;46.53;;;12.93;;
61525;SDS011;47394;41.366;-8.738;2023-04-15T11:14:58;54.42;;;12.45;;
61525;SDS011;47394;41.366;-8.738;2023-04-15T11:16:58;35.72;;;11.05;;
61525;SDS011;47394;41.366;-8.738;2023-04-15T11:18:59;36.13;;;11.52;;
61525;SDS011;47394;41.366;-8.738;2023-04-15T11:21:01;30.40;;;10.20;;
61525;SDS011;47394;41.366;-8.738;2023-04-15T11:23:03;31.08;;;10.15;;
61525;SDS011;47394;41.366;-8.738;2023-04-15T11:25:03;39.83;;;10.13;;
61525;SDS011;47394;41.366;-8.738;2023-04-15T11:27:04;30.45;;;10.15;;
61525;SDS011;47394;41.366;-8.738;2023-04-15T11:29:05;40.10;;;9.40;;
61525;SDS011;47394;41.366;-8.738;2023-04-15T11:31:10;35.17;;;9.18;;
61525;SDS011;47394;41.366;-8.738;2023-04-15T11:33:11;31.70;;;9.02;;
61525;SDS011;47394;41.366;-8.738;2023-04-15T11:35:13;29.05;;;8.55;;
61525;SDS011;47394;41.366;-8.738;2023-04-15T11:37:13;31.17;;;8.70;;
61525;SDS011;47394;41.366;-8.738;2023-04-15T11:39:13;24.67;;;8.70;;
61525;SDS011;47394;41.366;-8.738;2023-04-15T11:41:18;33.30;;;8.52;;
61525;SDS011;47394;41.366;-8.738;2023-04-15T11:43:20;26.13;;;7.72;;
61525;SDS011;47394;41.366;-8.738;2023-04-15T11:45:21;36.50;;;9.07;;
61525;SDS011;47394;41.366;-8.738;2023-04-15T11:47:22;23.90;;;7.93;;
61525;SDS011;47394;41.366;-8.738;2023-04-15T11:49:29;29.08;;;8.88;;